Aeroporto :
LOGIN :

Iscrizione | Disclaimer

   EN    FR    IT 

 










Sommario :    VFR   VFR Marginale   IFR   IFR Intensivo   IFR Molto Intensivo
Visibilità : 
Base nubi : 
>= 8 km
>= 3000ft
5 / 8 km
1000 / 3000 ft
1500m / 5 km
500 / 1000 ft
800 / 1500m
200 / 500 ft
< 800m
< 200 ft
Simboli :   Temporali  Nebbia  Neve Forte  Precipitazioni Forti  Vento > 20 kt
SIGMETs :   Varie  Temporali  Ghiacco  Turbolenza  Onda orograficha  Ceneri Vulcaniche







- Altitudine del aeroporto : 863 ft
- Codice IATA : ZAZ


LEZG - Zaragoza Aragon

ULTIMO METAR :
  • 181900Z 30023KT CAVOK 22/12 Q1021

METARs OBSOLETI :
  • 181830Z 30025KT CAVOK 23/12 Q1021
  • 181800Z 30023KT CAVOK 23/12 Q1021
  • 181730Z 30022KT CAVOK 24/12 Q1021
  • 181700Z 31023KT 270V340 9999 FEW045 25/12 Q1021
  • 181630Z 30023KT 9999 FEW045 25/12 Q1021

TAF TAF LEZG
Valido dal 18 a 18 ore il 19 a 18 ore UTC


181700Z 1818/1918 30018KT 9999 FEW045 TX32/1914Z TN16/1906Z
TEMPO 1818/1824 31022G38KT
BECMG 1901/1904 30012KT
BECMG 1909/1912 28007KT
Nessun NOTAM noto per questo aeroporto.



MetMap, La meteo Aeronautica in un colpo d'occhio ! - Copyright ORBIFLY Dicembre 2007 - Disclaimer

ORBIFLY MET'MAP TEAM :

Programmazione e sviluppo : Alexandra Zaïnal
Concezione e sviluppo : Baudouin d'Aumeries
Co-Programmazione e sviluppo : Marc-Olivier Méhu
Supporto tecnico e logistico : Manuel Goepfert
Aiuto per la traduzione : Arnaldo La Scala

Contatto : metmap@orbifly.com




FONTI E CREDITI :

   NOAA